• Join FlightAware (Why Join?)
  • Login
  • US Flag 
03:46PM EDT


 

Airport Tracker/Info


-or-


 

Live Flight TrackerFlight Track Log ✈ SWA183 ✈ 27-Apr-2013 ✈ KLAX - KSMF

Flight Track Log - Related Links

Times and Time Zones

All times are in EDT time to prevent confusion due to time zone crossing. See the SWA183 flight status page for this flight to view local times or setup timezone preferences in your user account.

Time Position Orientation Groundspeed Altitude Reporting Facility
EDT Latitude Longitude Course Direction KTS MPH feet Rate Location/Type
09:17PM 33.9500 -118.5000 260° West 200 230 3,800  Level Southern California TRACON
09:19PM 33.9364 -118.5944 260° West 256 295 6,400 2,280 Climbing Los Angeles Center
09:20PM 33.9686 -118.6719 297° West 287 330 9,000 1,260 Climbing Los Angeles Center
09:21PM 34.0386 -118.7086 337° Northwest 282 325 9,000  Level Los Angeles Center
09:22PM 34.0983 -118.6625 33° Northeast 276 318 9,000 1,200 Level Los Angeles Center
09:23PM 34.1875 -118.6414 11° North 284 327 11,800 2,820 Climbing Los Angeles Center
09:24PM 34.2933 -118.6806 343° North 340 391 14,900 3,120 Climbing Los Angeles Center
09:25PM 34.3958 -118.7164 344° North 378 435 18,300 3,360 Climbing Los Angeles Center
09:26PM 34.5006 -118.7533 344° North 390 449 21,800 3,180 Climbing Los Angeles Center
09:27PM 34.6083 -118.7911 344° North 400 460 24,900 2,460 Climbing Los Angeles Center
09:28PM 34.6958 -118.8236 343° North 404 465 26,900 2,400 Climbing Los Angeles Center
09:29PM 34.8322 -118.8722 344° North 423 487 29,900 2,340 Climbing Los Angeles Center
09:30PM 34.9494 -118.9253 340° North 428 493 31,800 1,020 Climbing Los Angeles Center
09:31PM 35.0594 -118.9739 340° North 425 489 32,000 60 Climbing Los Angeles Center
09:32PM 35.1664 -119.0225 340° North 415 478 32,000  Level Los Angeles Center
09:33PM 35.2719 -119.0717 339° North 409 471 32,000  Level Los Angeles Center
09:34PM 35.3981 -119.1283 340° North 404 465 32,000  Level Los Angeles Center
09:35PM 35.5017 -119.1742 340° North 400 460 32,000  Level Los Angeles Center
09:36PM 35.6056 -119.2219 340° North 398 458 32,000  Level Los Angeles Center
09:37PM 35.7114 -119.2706 340° North 403 464 32,000  Level Los Angeles Center
09:38PM 35.7953 -119.3078 340° North 408 470 32,000  Level Oakland Center
09:39PM 35.9019 -119.3572 339° North 410 472 32,000  Level Oakland Center
09:40PM 36.0069 -119.4067 339° North 407 468 32,000  Level Oakland Center
09:41PM 36.1133 -119.4539 340° North 407 468 32,000  Level Oakland Center
09:42PM 36.2183 -119.5019 340° North 404 465 32,000  Level Oakland Center
09:43PM 36.3439 -119.5606 339° North 400 460 32,000  Level Oakland Center
09:44PM 36.4500 -119.6100 339° North 407 468 32,000  Level Oakland Center
09:45PM 36.5547 -119.6594 339° North 406 467 32,000  Level Oakland Center
09:46PM 36.6589 -119.7097 339° North 403 464 32,000  Level Oakland Center
09:47PM 36.7647 -119.7586 340° North 405 466 32,000  Level Oakland Center
09:48PM 36.8708 -119.8111 338° Northwest 412 474 32,000 -420 Level Oakland Center
09:49PM 36.9619 -119.8933 324° Northwest 406 467 31,200 -900 Descending Oakland Center
09:50PM 37.0508 -119.9817 322° Northwest 409 471 30,200 -1,020 Descending Oakland Center
09:51PM 37.1422 -120.0728 322° Northwest 406 467 29,200 -1,020 Descending Oakland Center
09:52PM 37.2297 -120.1606 321° Northwest 410 472 28,200 -1,260 Descending Oakland Center
09:53PM 37.3147 -120.2456 322° Northwest 394 453 26,700 -1,800 Descending Oakland Center
09:54PM 37.4000 -120.3206 325° Northwest 374 430 24,600 -1,920 Descending Oakland Center
09:55PM 37.4500 -120.3833 315° West 369 425 23,600 -1,260 Descending Northern Cal TRACON
09:56PM 37.5500 -120.4667 327° Northwest 365 420 22,500 -960 Descending Northern Cal TRACON
09:57PM 37.6167 -120.5500 315° West 359 413 21,600 -840 Descending Northern Cal TRACON
09:57PM 37.6389 -120.5589 342° North 361 415 21,400 -1,440 Descending Oakland Center
09:58PM 37.7000 -120.6333 316° Northwest 353 406 20,200 -1,680 Descending Northern Cal TRACON
09:59PM 37.7667 -120.7000 322° Northwest 344 396 18,800 -1,320 Descending Northern Cal TRACON
10:00PM 37.8333 -120.7667 322° Northwest 328 377 17,800 -960 Descending Northern Cal TRACON
10:00PM 37.8750 -120.7983 329° Northwest 328 377 17,400 -960 Descending Oakland Center
10:01PM 37.9456 -120.8700 321° Northwest 325 374 16,400 -1,020 Descending Oakland Center
10:02PM 38.0164 -120.9422 321° Northwest 326 375 15,400 -1,020 Descending Oakland Center
10:03PM 38.0839 -121.0147 320° Northwest 320 368 14,400 -1,020 Descending Oakland Center
10:04PM 38.1408 -121.0994 311° West 315 362 13,400 -1,020 Descending Oakland Center
10:05PM 38.1667 -121.1500 303° West 313 360 12,800 -960 Descending Northern Cal TRACON
10:06PM 38.2333 -121.2333 316° Northwest 309 356 11,900 -960 Descending Northern Cal TRACON
10:07PM 38.2833 -121.3167 307° West 304 350 10,900 -960 Descending Northern Cal TRACON
10:08PM 38.3333 -121.4000 307° West 298 343 10,000 -480 Descending Northern Cal TRACON
10:09PM 38.4000 -121.4833 316° Northwest 294 338 10,000 -540 Level Northern Cal TRACON
10:10PM 38.4500 -121.5500 314° West 293 337 9,000 -1,320 Descending Northern Cal TRACON
10:11PM 38.5167 -121.6000 330° Northwest 279 321 7,400 -1,440 Descending Northern Cal TRACON
10:11PM 38.5425 -121.6267 321° Northwest 279 321 6,700 -1,440 Descending Oakland Center
10:13PM 38.6078 -121.6775 329° Northwest 274 315 5,200 -1,620 Descending Oakland Center
10:14PM 38.6792 -121.6942 350° North 267 307 3,500 -1,140 Descending Oakland Center
10:15PM 38.7511 -121.6961 359° North 257 296 3,000 -600 Descending Oakland Center
10:16PM 38.8036 -121.6939 North 199 229 2,400 -600 Descending Oakland Center
10:17PM 38.8158 -121.6344 75° East 183 211 1,800 -720 Descending Oakland Center
10:17PM 38.8167 -121.6167 87° East 166 191 1,500 -480 Descending Northern Cal TRACON
10:18PM 38.7667 -121.6000 165° South 148 170 1,200 -480 Descending Northern Cal TRACON
10:19PM 38.7333 -121.6000 180° South 123 142 600 -600 Descending Northern Cal TRACON